首页
METAR-TAF:

METAR-TAF

机场 :

克林顿 / Burns Flat, 奧克拉荷馬州, 美国

纬度: 35-21-24N, 经度: 099-12-13W, 海拔: 585米

当前天气观测

该预报发布于29分钟前的11:21 UTC
风速17节,风向北转东北,有时为23节阵风
温度 19°C
湿度 94%
气压 1020 hPa
能見度: 16.1公里
少量云层高于700英尺
多云层高于1400英尺
阴天层高于2300英尺
小雨

METAR: KCSM 191121Z AUTO 03017G23KT 10SM -RA FEW007 BKN014 OVC023 19/18 A3012 RMK AO2 RAB18 P0000 T01890178

时间: 06:50 (11:50 UTC)

预报

该预报发布于30分钟前的11:20 UTC
预报有效从19日的 12点(UTC)到 20日的 12点(UTC)
风速13节,风向南转南东
能見度: 10公里
多云层高于2000英尺
阴天层高于4000英尺
附近有阵雨
从 19日的 1600点(UTC)
风速14节,风向南转南东,有时为19节阵风
能見度: 10公里
多云层高于4000英尺
多云层高于15000英尺
从 20日的 0100点(UTC)
风速10节,风向南转南东
能見度: 10公里
多云层高于10000英尺

TAF: KCSM 191120Z 1912/2012 16013KT P6SM VCSH BKN020 OVC040 FM191600 15014G19KT P6SM BKN040 BKN150 FM200100 15010KT P6SM BKN100

超过4000个机场的气象观测和天气预报(METAR&TAF报告)。

可查询的气象台以黄色和红色小点在地图上表示。

将鼠标移到小点上方,可查看气象台名称。

然后点击查看天气观测和预报。

如需切换地图:点击带黑十字的绿色按钮放大地图;点击带横线的绿色按钮缩小地图;或者点击绿色箭头查看邻近地区的地图。


METAR-TAF: